Time;durP1;ratioP1;P1;durP2;ratioP2;P2;SDS_P1;SDS_P2;PMS_P1;PMS_P2;Temp;Humidity;BMP_temperature;BMP_pressure;BME280_temperature;BME280_humidity;BME280_pressure;Samples;Min_cycle;Max_cycle;Signal;HPM_P1;HPM_P2
2022/11/01 00:00:59;;;;;;;10.85;5.55;;;14.10;76.10;;;;;;5013463;28;20188;-70
2022/11/01 00:03:24;;;;;;;9.82;6.20;;;14.00;76.60;;;;;;5009383;28;20184;-69
2022/11/01 00:05:50;;;;;;;9.93;6.13;;;14.00;76.90;;;;;;5015207;28;20180;-68
2022/11/01 00:08:16;;;;;;;12.68;5.57;;;13.80;77.20;;;;;;5014599;28;20984;-67
2022/11/01 00:10:41;;;;;;;6.80;5.05;;;13.80;75.80;;;;;;5013481;28;20191;-69
2022/11/01 00:13:07;;;;;;;10.85;5.20;;;13.70;76.40;;;;;;5008592;28;20180;-69
2022/11/01 00:15:33;;;;;;;6.88;4.85;;;13.70;75.20;;;;;;5018340;28;20180;-69
2022/11/01 00:17:58;;;;;;;8.45;5.13;;;13.60;75.10;;;;;;5013997;28;20318;-69
2022/11/01 00:20:24;;;;;;;5.13;4.28;;;13.60;74.90;;;;;;5008294;28;20188;-69
2022/11/01 00:22:49;;;;;;;5.90;3.88;;;13.60;75.20;;;;;;5007870;28;20197;-69
2022/11/01 00:25:15;;;;;;;4.95;4.50;;;13.60;74.90;;;;;;5013092;28;20314;-69
2022/11/01 00:27:41;;;;;;;6.00;4.10;;;13.60;75.00;;;;;;5011764;28;20184;-69
2022/11/01 00:30:07;;;;;;;6.97;4.10;;;13.60;76.40;;;;;;5012914;28;20245;-69
2022/11/01 00:32:32;;;;;;;11.70;4.63;;;13.60;76.20;;;;;;5017783;28;20271;-69
2022/11/01 00:34:58;;;;;;;6.90;4.78;;;13.50;75.00;;;;;;5013321;28;20805;-69
2022/11/01 00:37:23;;;;;;;4.57;4.18;;;13.50;74.90;;;;;;5008947;28;20223;-69
2022/11/01 00:39:49;;;;;;;4.13;3.80;;;13.50;74.70;;;;;;5008250;28;20187;-69
2022/11/01 00:42:15;;;;;;;4.85;4.15;;;13.50;74.80;;;;;;5009320;28;20246;-69
2022/11/01 00:44:40;;;;;;;10.98;4.28;;;13.50;74.90;;;;;;5012204;28;20265;-69
2022/11/01 00:47:06;;;;;;;7.53;4.43;;;13.50;75.20;;;;;;5015498;28;20702;-69
2022/11/01 00:49:31;;;;;;;5.03;3.85;;;13.50;75.80;;;;;;5015147;28;20192;-69
2022/11/01 00:51:57;;;;;;;8.35;4.95;;;13.50;75.40;;;;;;5013734;28;20325;-69
2022/11/01 00:54:23;;;;;;;7.40;5.10;;;13.40;75.70;;;;;;5007258;28;20663;-69
2022/11/01 00:56:48;;;;;;;8.35;5.55;;;13.40;75.10;;;;;;5014051;28;20213;-69
2022/11/01 00:59:14;;;;;;;15.13;5.90;;;13.40;76.40;;;;;;5013369;28;20659;-70
2022/11/01 01:01:40;;;;;;;8.57;6.03;;;13.40;76.20;;;;;;5008592;28;20188;-70
2022/11/01 01:04:05;;;;;;;14.70;6.45;;;13.40;75.70;;;;;;5012152;28;20580;-69
2022/11/01 01:06:31;;;;;;;9.63;6.50;;;13.30;75.90;;;;;;5015955;28;20688;-69
2022/11/01 01:08:59;;;;;;;16.13;7.53;;;13.30;75.90;;;;;;5012235;28;20277;-69
2022/11/01 01:11:25;;;;;;;15.98;8.02;;;13.30;76.10;;;;;;5009926;28;20185;-69
2022/11/01 01:13:50;;;;;;;17.30;7.32;;;13.30;76.50;;;;;;5015220;28;20928;-71
2022/11/01 01:16:16;;;;;;;13.13;7.47;;;13.20;76.80;;;;;;5010324;28;20281;-70
2022/11/01 01:18:42;;;;;;;11.93;8.63;;;13.20;76.50;;;;;;5010380;28;20190;-70
2022/11/01 01:21:08;;;;;;;14.40;7.80;;;13.20;76.10;;;;;;5010582;28;20211;-69
2022/11/01 01:23:34;;;;;;;21.75;7.88;;;13.10;76.10;;;;;;5007702;28;20250;-70
2022/11/01 01:26:04;;;;;;;13.60;8.52;;;13.10;76.50;;;;;;5004963;28;20209;-69
2022/11/01 01:28:30;;;;;;;17.08;8.35;;;13.10;76.60;;;;;;5009962;28;20189;-69
2022/11/01 01:30:56;;;;;;;22.23;9.73;;;13.00;76.40;;;;;;5009326;28;20281;-69
2022/11/01 01:33:21;;;;;;;18.83;8.65;;;13.00;77.10;;;;;;5005445;28;20195;-69
2022/11/01 01:35:47;;;;;;;17.10;8.85;;;12.90;77.50;;;;;;5009189;28;20176;-69
2022/11/01 01:38:13;;;;;;;19.30;8.77;;;12.90;77.10;;;;;;5008789;28;20213;-69
2022/11/01 01:40:38;;;;;;;14.38;8.93;;;12.90;77.20;;;;;;5012679;28;20177;-69
2022/11/01 01:43:04;;;;;;;15.55;8.05;;;12.80;77.10;;;;;;5009847;28;20181;-69
2022/11/01 01:45:31;;;;;;;13.65;8.00;;;12.80;77.30;;;;;;5007927;28;20232;-69
2022/11/01 01:48:05;;;;;;;17.42;8.90;;;12.80;77.70;;;;;;5014818;28;20299;-69
2022/11/01 01:50:37;;;;;;;16.55;8.55;;;12.80;77.20;;;;;;5006775;28;20287;-69
2022/11/01 01:53:21;;;;;;;17.65;7.47;;;12.70;79.30;;;;;;5006523;28;20189;-69
2022/11/01 01:56:00;;;;;;;13.70;7.00;;;12.70;78.60;;;;;;5010637;28;20269;-70
2022/11/01 01:58:47;;;;;;;10.43;7.00;;;12.60;77.00;;;;;;5011592;28;20192;-69
2022/11/01 02:01:12;;;;;;;10.13;6.93;;;12.60;78.30;;;;;;5009638;28;20613;-68
2022/11/01 02:03:40;;;;;;;11.02;6.97;;;12.50;79.20;;;;;;5009546;28;20188;-70
2022/11/01 02:06:13;;;;;;;6.85;5.88;;;12.50;79.20;;;;;;5008719;28;20264;-69
2022/11/01 02:08:41;;;;;;;13.60;5.85;;;12.50;78.30;;;;;;5011949;28;20187;-69
2022/11/01 02:11:09;;;;;;;10.80;6.97;;;12.50;80.00;;;;;;5009870;28;20188;-69
2022/11/01 02:13:35;;;;;;;14.02;7.75;;;12.40;79.90;;;;;;5013658;28;20271;-69
2022/11/01 02:16:25;;;;;;;16.40;8.13;;;12.40;79.10;;;;;;5009610;28;20189;-70
2022/11/01 02:19:15;;;;;;;13.32;7.68;;;12.30;78.50;;;;;;5010097;28;20207;-70
2022/11/01 02:21:55;;;;;;;13.77;7.65;;;12.30;78.70;;;;;;5010198;28;20181;-68
2022/11/01 02:24:29;;;;;;;15.23;8.02;;;12.20;78.60;;;;;;5006932;28;20255;-68
2022/11/01 02:27:00;;;;;;;15.80;7.70;;;12.20;78.90;;;;;;5010001;28;20199;-69
2022/11/01 02:29:32;;;;;;;20.33;7.68;;;12.10;77.90;;;;;;5011751;28;20184;-69
2022/11/01 02:32:19;;;;;;;10.95;7.15;;;12.10;77.80;;;;;;5010882;28;20211;-69
2022/11/01 02:34:53;;;;;;;17.17;7.32;;;12.10;78.70;;;;;;5008671;28;20192;-69
2022/11/01 02:37:25;;;;;;;9.15;6.63;;;12.10;78.50;;;;;;5017399;28;20226;-69
2022/11/01 02:39:56;;;;;;;12.00;6.63;;;12.10;78.80;;;;;;5012381;28;20578;-69
2022/11/01 02:42:28;;;;;;;13.70;6.53;;;12.10;78.70;;;;;;5014941;28;20216;-69
2022/11/01 02:45:01;;;;;;;11.15;5.97;;;12.10;78.30;;;;;;5013662;28;20391;-69
2022/11/01 02:47:29;;;;;;;14.27;5.68;;;12.10;78.50;;;;;;5014943;28;20188;-69
2022/11/01 02:50:00;;;;;;;9.80;6.47;;;12.10;79.40;;;;;;5009262;28;20184;-69
2022/11/01 02:52:29;;;;;;;7.95;6.18;;;12.10;79.40;;;;;;5017406;28;20177;-69
2022/11/01 02:54:57;;;;;;;12.30;6.30;;;12.10;79.00;;;;;;5010947;28;20184;-69
2022/11/01 02:57:39;;;;;;;11.85;6.35;;;12.10;80.10;;;;;;5014285;28;20216;-69
2022/11/01 03:00:27;;;;;;;7.70;5.80;;;12.10;79.10;;;;;;5014844;28;20184;-69
2022/11/01 03:03:08;;;;;;;6.30;5.50;;;12.10;79.60;;;;;;5011012;28;20183;-69
2022/11/01 03:05:58;;;;;;;10.35;6.68;;;12.10;80.10;;;;;;5011776;28;20184;-69
2022/11/01 03:08:43;;;;;;;10.30;6.80;;;12.00;79.10;;;;;;5020458;28;20267;-69
2022/11/01 03:11:18;;;;;;;9.23;6.85;;;12.00;78.50;;;;;;5011794;28;20299;-69
2022/11/01 03:14:03;;;;;;;11.00;5.60;;;12.00;79.40;;;;;;5011774;28;20211;-69
2022/11/01 03:16:48;;;;;;;9.52;6.68;;;12.00;80.00;;;;;;5009706;28;20215;-69
2022/11/01 03:19:22;;;;;;;5.90;5.10;;;11.90;79.20;;;;;;5012413;28;20195;-69
2022/11/01 03:22:14;;;;;;;6.80;5.07;;;11.90;79.20;;;;;;5007703;28;20696;-69
2022/11/01 03:24:44;;;;;;;7.30;5.50;;;11.90;79.60;;;;;;5032350;28;20209;-69
2022/11/01 03:27:14;;;;;;;7.80;5.97;;;11.90;79.70;;;;;;5011878;28;20185;-69
2022/11/01 03:29:44;;;;;;;7.18;5.50;;;11.90;79.50;;;;;;5008458;28;20227;-69
2022/11/01 03:32:11;;;;;;;7.05;5.78;;;11.90;79.70;;;;;;5012221;28;20267;-69
2022/11/01 03:34:39;;;;;;;6.15;5.45;;;11.90;79.90;;;;;;5012571;28;20233;-68
2022/11/01 03:37:10;;;;;;;8.65;6.30;;;11.90;79.70;;;;;;5007554;28;20223;-68
2022/11/01 03:39:41;;;;;;;12.65;5.78;;;11.80;80.00;;;;;;5013181;28;20212;-69
2022/11/01 03:42:13;;;;;;;10.37;6.63;;;11.90;79.80;;;;;;5012379;28;20670;-69
2022/11/01 03:44:44;;;;;;;10.02;5.88;;;11.80;80.00;;;;;;5013987;28;20212;-69
2022/11/01 03:47:11;;;;;;;11.95;6.60;;;11.80;79.80;;;;;;5010429;28;20189;-69
2022/11/01 03:49:36;;;;;;;13.93;6.78;;;11.80;80.30;;;;;;5014317;28;20195;-69
2022/11/01 03:52:02;;;;;;;13.68;6.20;;;11.80;80.20;;;;;;5008882;28;20185;-69
2022/11/01 03:54:28;;;;;;;13.90;6.90;;;11.80;80.70;;;;;;5008000;28;20303;-68
2022/11/01 03:56:54;;;;;;;8.45;5.90;;;11.70;80.00;;;;;;5009292;28;20595;-69
2022/11/01 03:59:20;;;;;;;11.38;6.88;;;11.70;79.90;;;;;;5011338;28;20199;-69
2022/11/01 04:01:45;;;;;;;8.95;6.03;;;11.70;79.80;;;;;;5010673;28;20267;-69
2022/11/01 04:04:11;;;;;;;10.60;6.30;;;11.70;80.50;;;;;;5013037;28;20191;-68
2022/11/01 04:06:37;;;;;;;7.90;5.97;;;11.70;80.10;;;;;;5014372;28;20181;-69
2022/11/01 04:09:02;;;;;;;10.93;6.07;;;11.60;80.20;;;;;;5007466;28;20216;-70
2022/11/01 04:11:28;;;;;;;9.35;6.05;;;11.60;80.20;;;;;;5009980;28;20181;-70
2022/11/01 04:20:31;;;;;;;10.02;6.28;;;11.60;80.90;;;;;;5010356;28;20192;-69
2022/11/01 04:22:08;;;;;;;9.85;6.15;;;11.60;81.50;;;;;;5011117;28;20192;-69
2022/11/01 04:24:33;;;;;;;7.78;5.57;;;11.60;81.40;;;;;;5008887;28;20173;-70
2022/11/01 04:26:59;;;;;;;6.50;5.85;;;11.50;81.20;;;;;;5009587;28;20285;-68
2022/11/01 04:29:25;;;;;;;7.10;5.68;;;11.50;80.90;;;;;;5007783;28;20731;-69
2022/11/01 04:31:50;;;;;;;9.52;6.70;;;11.40;80.80;;;;;;5017078;28;20181;-70
2022/11/01 04:34:41;;;;;;;14.93;6.35;;;11.40;80.60;;;;;;5009181;28;20301;-70
2022/11/01 04:37:01;;;;;;;10.50;6.03;;;11.40;81.00;;;;;;5008998;28;20212;-70
2022/11/01 04:39:27;;;;;;;12.37;7.43;;;11.40;80.80;;;;;;5015744;28;20904;-69
2022/11/01 04:41:53;;;;;;;7.95;5.88;;;11.40;80.90;;;;;;5010533;28;20200;-69
2022/11/01 04:44:18;;;;;;;11.65;6.88;;;11.30;81.00;;;;;;5013983;28;20241;-70
2022/11/01 04:46:44;;;;;;;6.95;6.32;;;11.30;80.90;;;;;;5012379;28;20205;-69
2022/11/01 04:49:10;;;;;;;13.52;6.47;;;11.30;81.00;;;;;;5007823;28;20257;-69
2022/11/01 04:51:39;;;;;;;9.43;7.03;;;11.30;81.00;;;;;;5010301;28;20191;-70
2022/11/01 04:54:06;;;;;;;9.45;6.72;;;11.30;81.10;;;;;;5005674;28;20196;-69
2022/11/01 04:56:32;;;;;;;8.03;6.03;;;11.20;80.80;;;;;;5011546;28;20216;-69
2022/11/01 04:58:58;;;;;;;14.23;6.37;;;11.20;80.90;;;;;;5010768;28;20196;-70
2022/11/01 05:01:24;;;;;;;11.20;6.22;;;11.20;81.00;;;;;;5009642;28;20185;-70
2022/11/01 05:03:50;;;;;;;11.98;6.65;;;11.20;81.60;;;;;;5015173;28;20185;-70
2022/11/01 05:06:15;;;;;;;9.73;6.87;;;11.20;81.80;;;;;;5016214;28;20307;-70
2022/11/01 05:08:41;;;;;;;12.20;6.27;;;11.20;81.60;;;;;;5012085;28;20188;-70
2022/11/01 05:11:07;;;;;;;10.70;6.63;;;11.20;81.60;;;;;;5015078;28;20825;-69
2022/11/01 05:13:32;;;;;;;11.70;6.93;;;11.20;81.30;;;;;;5012484;28;22015;-69
2022/11/01 05:16:02;;;;;;;10.30;6.30;;;11.20;81.60;;;;;;5007011;28;20181;-69
2022/11/01 05:18:28;;;;;;;9.83;5.83;;;11.20;81.20;;;;;;5005733;28;20228;-69
2022/11/01 05:20:55;;;;;;;10.83;5.50;;;11.20;82.30;;;;;;5010377;28;20215;-69
2022/11/01 05:23:21;;;;;;;8.30;5.50;;;11.20;82.00;;;;;;5012817;28;20254;-69
2022/11/01 05:25:46;;;;;;;8.15;6.05;;;11.10;82.20;;;;;;5009915;28;20185;-69
2022/11/01 05:28:13;;;;;;;10.27;6.63;;;11.20;83.00;;;;;;5009403;28;20292;-71
2022/11/01 05:30:40;;;;;;;7.47;5.57;;;11.10;82.10;;;;;;5010465;28;20677;-70
2022/11/01 05:33:07;;;;;;;10.48;5.90;;;11.10;81.90;;;;;;5011897;28;20180;-71
2022/11/01 05:35:34;;;;;;;8.37;5.30;;;11.10;82.00;;;;;;5013383;28;20180;-72
2022/11/01 05:38:01;;;;;;;7.70;5.50;;;11.10;83.30;;;;;;5008249;28;20784;-70
2022/11/01 05:40:26;;;;;;;12.13;4.73;;;11.10;83.10;;;;;;5012126;28;20191;-69
2022/11/01 05:42:53;;;;;;;7.78;5.65;;;11.20;83.10;;;;;;5009605;28;20189;-69
2022/11/01 05:45:18;;;;;;;11.00;6.47;;;11.20;83.40;;;;;;5012307;28;20787;-71
2022/11/01 05:47:44;;;;;;;7.83;5.63;;;11.20;82.90;;;;;;5012517;28;20180;-68
2022/11/01 05:50:11;;;;;;;7.83;5.60;;;11.20;83.00;;;;;;5008712;28;20662;-70
2022/11/01 05:52:37;;;;;;;8.47;5.27;;;11.20;83.40;;;;;;5011549;28;20234;-70
2022/11/01 05:55:04;;;;;;;6.43;5.83;;;11.30;83.30;;;;;;5008292;28;20626;-70
2022/11/01 05:57:30;;;;;;;10.33;6.23;;;11.30;83.50;;;;;;5010307;28;20307;-70
2022/11/01 05:59:55;;;;;;;8.80;5.67;;;11.30;83.20;;;;;;5018349;28;20279;-70
2022/11/01 06:02:21;;;;;;;10.30;5.50;;;11.30;83.90;;;;;;5017031;28;20259;-69
2022/11/01 06:04:47;;;;;;;6.20;4.70;;;11.40;83.60;;;;;;5005428;28;20292;-69
2022/11/01 06:07:12;;;;;;;7.35;5.53;;;11.40;83.60;;;;;;5010703;28;20184;-69
2022/11/01 06:09:38;;;;;;;8.20;5.90;;;11.40;83.50;;;;;;5015232;28;20188;-70
2022/11/01 06:12:04;;;;;;;8.82;5.25;;;11.50;83.00;;;;;;5019450;28;20997;-70
2022/11/01 06:14:30;;;;;;;11.05;5.82;;;11.50;83.00;;;;;;5010711;28;20187;-70
2022/11/01 06:16:56;;;;;;;6.57;5.25;;;11.60;82.80;;;;;;5016930;28;20216;-69
2022/11/01 06:19:21;;;;;;;11.57;5.05;;;11.70;83.40;;;;;;5014314;28;20185;-70
2022/11/01 06:21:47;;;;;;;12.85;6.13;;;11.70;83.10;;;;;;5010840;28;20208;-70
2022/11/01 06:24:13;;;;;;;13.20;6.47;;;11.80;83.20;;;;;;5016604;28;20218;-69
2022/11/01 06:26:38;;;;;;;9.82;5.85;;;11.80;82.40;;;;;;5011417;28;20221;-70
2022/11/01 06:29:05;;;;;;;12.30;6.90;;;11.90;81.80;;;;;;5013019;28;20199;-70
2022/11/01 06:31:31;;;;;;;10.13;6.45;;;12.00;81.40;;;;;;5015718;28;20184;-70
2022/11/01 06:33:56;;;;;;;16.63;6.93;;;12.00;82.30;;;;;;5012493;28;20184;-69
2022/11/01 06:36:23;;;;;;;8.50;6.25;;;12.10;83.50;;;;;;5012945;28;20219;-69
2022/11/01 06:38:49;;;;;;;11.15;6.82;;;12.10;84.50;;;;;;5014060;28;20185;-69
2022/11/01 06:41:15;;;;;;;11.05;6.75;;;12.30;85.40;;;;;;5018522;28;20637;-70
2022/11/01 06:43:41;;;;;;;9.88;6.55;;;12.50;84.90;;;;;;5014905;28;20250;-70
2022/11/01 06:46:07;;;;;;;9.40;6.82;;;12.80;84.70;;;;;;5015140;28;20215;-70
2022/11/01 06:48:32;;;;;;;9.25;7.07;;;13.30;84.40;;;;;;5020229;28;20180;-71
2022/11/01 06:51:01;;;;;;;9.38;7.65;;;13.80;84.10;;;;;;5004324;28;20213;-70
2022/11/01 06:53:27;;;;;;;11.18;7.60;;;14.50;83.60;;;;;;5014335;28;20184;-70
2022/11/01 06:55:52;;;;;;;12.98;7.70;;;15.10;81.20;;;;;;5007587;28;20192;-70
2022/11/01 06:58:18;;;;;;;10.45;6.80;;;15.80;81.10;;;;;;5016365;28;20255;-70
2022/11/01 07:00:44;;;;;;;8.23;7.28;;;16.50;79.80;;;;;;5016105;28;20189;-71
2022/11/01 07:03:12;;;;;;;11.18;8.40;;;17.10;75.80;;;;;;5008973;28;20187;-69
2022/11/01 07:05:39;;;;;;;10.55;7.65;;;17.70;75.50;;;;;;5009246;28;20193;-70
2022/11/01 07:08:06;;;;;;;13.93;7.70;;;18.30;73.70;;;;;;5010066;28;20682;-71
2022/11/01 07:10:32;;;;;;;11.65;7.22;;;18.90;72.60;;;;;;5011872;28;20180;-70
2022/11/01 07:13:03;;;;;;;18.25;7.68;;;19.50;70.90;;;;;;5015150;28;20192;-69
2022/11/01 07:15:29;;;;;;;10.65;8.05;;;20.10;70.20;;;;;;5013463;28;20185;-70
2022/11/01 07:18:03;;;;;;;14.63;8.65;;;20.70;68.60;;;;;;5009556;28;20717;-72
2022/11/01 07:20:34;;;;;;;10.48;8.27;;;21.30;66.80;;;;;;5006326;28;20570;-68
2022/11/01 07:23:04;;;;;;;12.65;8.80;;;21.90;66.80;;;;;;5005297;28;20189;-70
2022/11/01 07:25:31;;;;;;;15.23;8.85;;;22.50;65.00;;;;;;5009226;28;20200;-70
2022/11/01 07:27:58;;;;;;;14.40;9.07;;;22.90;64.40;;;;;;5010149;28;20283;-70
2022/11/01 07:30:24;;;;;;;13.50;8.68;;;23.40;63.40;;;;;;5006218;28;20268;-70
2022/11/01 07:32:58;;;;;;;12.57;8.68;;;23.90;62.60;;;;;;5012086;28;20191;-70
2022/11/01 07:35:24;;;;;;;9.73;8.65;;;24.30;61.30;;;;;;5007833;28;20177;-69
2022/11/01 07:37:50;;;;;;;21.58;9.82;;;24.80;60.90;;;;;;5009135;28;20228;-70
2022/11/01 07:40:16;;;;;;;14.93;10.02;;;25.20;60.20;;;;;;5010319;28;20892;-70
2022/11/01 07:42:43;;;;;;;14.77;9.30;;;25.60;59.00;;;;;;5002955;28;20247;-70
2022/11/01 07:45:10;;;;;;;19.17;9.80;;;26.00;58.30;;;;;;5004891;28;20240;-71
2022/11/01 07:47:36;;;;;;;20.80;9.02;;;26.30;57.90;;;;;;5010002;28;20192;-73
2022/11/01 07:50:02;;;;;;;12.35;9.13;;;26.60;57.30;;;;;;5005868;28;20411;-70
2022/11/01 07:52:28;;;;;;;17.70;10.40;;;26.90;56.80;;;;;;5004400;28;20354;-70
2022/11/01 07:54:54;;;;;;;15.10;9.50;;;27.20;56.60;;;;;;5005749;28;20196;-70
2022/11/01 07:57:19;;;;;;;15.68;10.18;;;27.50;56.80;;;;;;5005435;28;20231;-68
2022/11/01 07:59:45;;;;;;;13.02;10.25;;;27.80;55.00;;;;;;5009823;28;20180;-70
2022/11/01 08:02:11;;;;;;;13.57;10.35;;;28.00;56.00;;;;;;5007186;28;20212;-70
2022/11/01 08:04:36;;;;;;;18.60;10.15;;;28.40;54.90;;;;;;5012811;28;21417;-70
2022/11/01 08:07:02;;;;;;;16.67;11.05;;;28.70;54.10;;;;;;5010723;28;20725;-71
2022/11/01 08:09:27;;;;;;;11.43;9.73;;;29.00;54.00;;;;;;5005522;28;20185;-72
2022/11/01 08:11:54;;;;;;;16.50;10.07;;;29.10;52.30;;;;;;5002101;28;20185;-70
2022/11/01 08:14:20;;;;;;;12.80;9.98;;;29.20;52.90;;;;;;5009651;28;20177;-71
2022/11/01 08:16:54;;;;;;;13.85;10.20;;;29.30;53.20;;;;;;5003998;28;20215;-71
2022/11/01 08:19:23;;;;;;;12.20;9.73;;;29.50;52.30;;;;;;5009476;28;20317;-70
2022/11/01 08:21:51;;;;;;;12.40;9.68;;;29.60;52.50;;;;;;5009538;28;20191;-72
2022/11/01 08:24:17;;;;;;;17.40;10.63;;;29.70;52.00;;;;;;5003651;28;20196;-70
2022/11/01 08:26:43;;;;;;;19.70;10.43;;;29.80;51.90;;;;;;5009225;28;20189;-71
2022/11/01 08:29:09;;;;;;;15.98;10.52;;;30.00;50.80;;;;;;5006430;28;20181;-70
2022/11/01 08:31:42;;;;;;;17.35;10.30;;;30.10;51.20;;;;;;5001044;28;20188;-70
2022/11/01 08:34:08;;;;;;;13.82;10.18;;;30.30;51.20;;;;;;5008974;28;20298;-71
2022/11/01 08:36:34;;;;;;;14.40;9.05;;;30.60;50.40;;;;;;5007455;28;20231;-71
2022/11/01 08:39:00;;;;;;;12.95;9.57;;;30.80;49.90;;;;;;5009474;28;20197;-72
2022/11/01 08:41:27;;;;;;;14.25;10.30;;;31.00;50.50;;;;;;5012137;28;20694;-73
2022/11/01 08:43:53;;;;;;;10.73;9.05;;;31.10;49.80;;;;;;5006035;28;20188;-73
2022/11/01 08:46:19;;;;;;;12.73;8.88;;;31.30;49.70;;;;;;5005277;28;20193;-71
2022/11/01 08:48:46;;;;;;;16.02;8.82;;;31.40;49.50;;;;;;5008556;28;20180;-68
2022/11/01 08:51:12;;;;;;;14.60;9.07;;;31.70;49.40;;;;;;5004646;28;20311;-71
2022/11/01 08:53:38;;;;;;;12.38;8.32;;;32.00;49.00;;;;;;5004287;28;20227;-72
2022/11/01 08:56:04;;;;;;;10.52;8.90;;;32.30;48.20;;;;;;5003766;28;20188;-70
2022/11/01 08:58:30;;;;;;;9.98;8.15;;;32.60;48.40;;;;;;5010212;28;20216;-71
2022/11/01 09:00:56;;;;;;;13.77;8.70;;;33.00;48.00;;;;;;5004179;28;20195;-71
2022/11/01 09:03:21;;;;;;;9.50;8.32;;;33.10;47.10;;;;;;5010595;28;20650;-73
2022/11/01 09:05:47;;;;;;;10.77;8.45;;;33.20;47.80;;;;;;5009408;28;20687;-72
2022/11/01 09:08:13;;;;;;;11.30;7.88;;;33.30;46.90;;;;;;5003578;28;20562;-72
2022/11/01 09:10:39;;;;;;;10.73;7.53;;;33.40;47.30;;;;;;5009746;28;20200;-73
2022/11/01 09:13:04;;;;;;;9.07;7.47;;;33.50;47.50;;;;;;5009070;28;20202;-71
2022/11/01 09:15:30;;;;;;;7.78;6.97;;;33.70;47.30;;;;;;5004220;28;20191;-71
2022/11/01 09:17:56;;;;;;;9.80;7.65;;;34.00;46.70;;;;;;5007846;28;20217;-71
2022/11/01 09:20:22;;;;;;;9.77;8.80;;;34.30;46.50;;;;;;5006657;28;20220;-72
2022/11/01 09:22:51;;;;;;;15.07;8.73;;;34.60;44.30;;;;;;5008324;28;20180;-70
2022/11/01 09:25:17;;;;;;;12.10;7.93;;;34.50;43.70;;;;;;5005332;28;20191;-72
2022/11/01 09:27:43;;;;;;;8.18;7.40;;;34.60;45.90;;;;;;5008826;28;20193;-72
2022/11/01 09:30:09;;;;;;;14.43;7.80;;;34.90;46.30;;;;;;5003890;28;20661;-71
2022/11/01 09:32:35;;;;;;;10.45;7.43;;;35.20;46.10;;;;;;5007489;28;20259;-72
2022/11/01 09:35:00;;;;;;;9.85;8.32;;;35.50;45.90;;;;;;5010067;28;20275;-72
2022/11/01 09:37:26;;;;;;;10.18;7.75;;;35.80;44.80;;;;;;5005980;28;20725;-72
2022/11/01 09:39:52;;;;;;;11.75;7.47;;;36.10;45.20;;;;;;5003166;28;20251;-71
2022/11/01 09:42:34;;;;;;;10.57;8.32;;;36.30;45.20;;;;;;5006488;28;20195;-71
2022/11/01 09:45:08;;;;;;;10.02;9.00;;;36.60;44.60;;;;;;5007850;28;20180;-71
2022/11/01 09:47:35;;;;;;;12.80;8.90;;;36.80;44.90;;;;;;5004073;28;20192;-71
2022/11/01 09:50:16;;;;;;;9.10;8.40;;;36.90;44.50;;;;;;5008460;28;20181;-72
2022/11/01 09:52:42;;;;;;;9.63;7.70;;;37.00;44.60;;;;;;5011441;28;20633;-71
2022/11/01 09:55:16;;;;;;;12.50;8.27;;;37.10;43.50;;;;;;5003586;28;20199;-71
2022/11/01 09:57:59;;;;;;;8.48;7.68;;;37.00;42.40;;;;;;5008741;28;20211;-71
2022/11/01 10:00:33;;;;;;;10.60;7.43;;;36.90;42.90;;;;;;5004359;28;20200;-72
2022/11/01 10:03:28;;;;;;;9.52;7.22;;;36.70;44.40;;;;;;5008729;28;20180;-70
2022/11/01 10:06:14;;;;;;;9.15;7.75;;;36.70;43.20;;;;;;5034348;28;20303;-71
2022/11/01 10:08:46;;;;;;;8.27;7.00;;;36.90;43.00;;;;;;5002849;28;20192;-71
2022/11/01 10:11:39;;;;;;;8.55;7.88;;;36.80;44.20;;;;;;5002936;28;20190;-70
2022/11/01 10:14:34;;;;;;;9.45;7.05;;;36.90;43.00;;;;;;5003534;28;20188;-70
2022/11/01 10:17:15;;;;;;;10.07;7.63;;;36.80;44.40;;;;;;5007455;28;20793;-72
2022/11/01 10:19:50;;;;;;;7.75;7.00;;;36.80;42.80;;;;;;5007298;28;20208;-70
2022/11/01 10:22:35;;;;;;;11.40;7.75;;;36.80;42.50;;;;;;5002752;28;20183;-68
2022/11/01 10:25:05;;;;;;;7.97;6.93;;;36.90;44.00;;;;;;5006550;28;20252;-70
2022/11/01 10:27:35;;;;;;;11.07;7.63;;;37.00;44.30;;;;;;5005341;28;20176;-71
2022/11/01 10:30:14;;;;;;;9.00;8.13;;;37.10;42.90;;;;;;5011374;28;20184;-70
2022/11/01 10:32:57;;;;;;;8.57;7.50;;;37.00;43.90;;;;;;5006710;28;20844;-71
2022/11/01 10:35:43;;;;;;;8.18;7.35;;;36.80;42.60;;;;;;5021414;28;20247;-71
2022/11/01 10:38:25;;;;;;;11.75;7.03;;;36.70;41.20;;;;;;5008734;28;20204;-71
2022/11/01 10:41:05;;;;;;;9.50;7.40;;;36.70;43.20;;;;;;5007905;28;20184;-70
2022/11/01 10:43:36;;;;;;;9.98;7.35;;;36.70;43.90;;;;;;4998811;28;20232;-71
2022/11/01 10:46:06;;;;;;;9.82;7.07;;;36.80;42.60;;;;;;5003801;28;20196;-72
2022/11/01 10:48:56;;;;;;;8.32;7.47;;;36.60;43.20;;;;;;5003927;28;20190;-72
2022/11/01 10:51:24;;;;;;;11.38;7.43;;;36.50;43.40;;;;;;5005444;28;20486;-72
2022/11/01 10:53:57;;;;;;;8.38;7.57;;;36.60;42.70;;;;;;5009598;28;20238;-72
2022/11/01 10:56:40;;;;;;;9.23;7.25;;;36.70;43.20;;;;;;5011574;28;20183;-72
2022/11/01 10:59:29;;;;;;;11.73;7.70;;;36.80;42.50;;;;;;5010089;28;20623;-72
2022/11/01 11:01:56;;;;;;;8.93;6.68;;;36.90;41.70;;;;;;5013506;28;20192;-71
2022/11/01 11:04:23;;;;;;;8.65;7.32;;;37.00;42.70;;;;;;5016086;28;20587;-72
2022/11/01 11:06:53;;;;;;;7.82;6.68;;;37.00;42.60;;;;;;5003773;28;20302;-71
2022/11/01 11:09:29;;;;;;;10.55;6.82;;;36.90;41.50;;;;;;5010799;28;20184;-72
2022/11/01 11:12:00;;;;;;;12.02;6.97;;;36.90;43.30;;;;;;5012831;28;20653;-73
2022/11/01 11:14:30;;;;;;;7.35;6.40;;;36.70;42.60;;;;;;5009738;28;20267;-73
2022/11/01 11:16:56;;;;;;;8.85;7.38;;;36.50;41.80;;;;;;5004285;28;20278;-75
2022/11/01 11:19:33;;;;;;;12.30;7.47;;;36.20;42.50;;;;;;5012750;28;20239;-74
2022/11/01 11:22:00;;;;;;;8.30;6.65;;;36.20;42.40;;;;;;5011971;28;20172;-74
2022/11/01 11:24:33;;;;;;;9.00;6.95;;;36.20;42.60;;;;;;5010719;28;20866;-74
2022/11/01 11:27:01;;;;;;;7.80;6.50;;;36.20;42.30;;;;;;5006772;28;20983;-73
2022/11/01 11:29:33;;;;;;;11.30;7.28;;;35.90;42.40;;;;;;5010907;28;20184;-74
2022/11/01 11:32:00;;;;;;;11.25;6.68;;;35.80;42.10;;;;;;5007455;28;20196;-74
2022/11/01 11:34:29;;;;;;;7.68;6.88;;;35.80;42.30;;;;;;5003554;28;20610;-74
2022/11/01 11:36:56;;;;;;;10.55;6.75;;;35.60;41.90;;;;;;5006737;28;20210;-74
2022/11/01 11:39:29;;;;;;;6.63;6.07;;;35.50;42.90;;;;;;5010397;28;20223;-74
2022/11/01 11:42:17;;;;;;;9.73;6.32;;;35.60;42.20;;;;;;5004195;28;20199;-73
2022/11/01 11:44:53;;;;;;;8.73;5.97;;;35.70;41.80;;;;;;5013217;28;20182;-74
2022/11/01 11:47:25;;;;;;;6.50;5.93;;;35.90;41.90;;;;;;5010556;28;20572;-73
2022/11/01 11:49:57;;;;;;;8.45;5.70;;;36.20;42.10;;;;;;5007850;28;20326;-73
2022/11/01 11:52:30;;;;;;;12.20;5.88;;;36.40;42.10;;;;;;5006105;28;20180;-73
2022/11/01 11:54:56;;;;;;;8.35;6.40;;;36.60;41.40;;;;;;5008286;28;20200;-71
2022/11/01 11:57:24;;;;;;;7.70;5.97;;;36.70;41.40;;;;;;5008900;28;20230;-72
2022/11/01 11:59:57;;;;;;;10.48;6.05;;;36.80;41.40;;;;;;5006803;28;20225;-72
2022/11/01 12:02:30;;;;;;;7.28;6.13;;;36.90;41.30;;;;;;5007250;28;20180;-73
2022/11/01 12:05:02;;;;;;;6.05;5.55;;;37.10;41.50;;;;;;5009140;28;20239;-72
2022/11/01 12:07:36;;;;;;;8.40;6.63;;;37.10;40.80;;;;;;5014049;28;20650;-72
2022/11/01 12:10:05;;;;;;;7.22;5.88;;;37.20;41.70;;;;;;5015499;28;21733;-72
2022/11/01 12:12:34;;;;;;;6.82;6.15;;;37.20;41.00;;;;;;5010670;28;20177;-73
2022/11/01 12:15:02;;;;;;;14.30;6.22;;;37.20;41.10;;;;;;5008705;28;20187;-73
2022/11/01 12:17:32;;;;;;;9.90;5.97;;;37.20;41.20;;;;;;5013632;28;20709;-72
2022/11/01 12:19:59;;;;;;;7.10;6.57;;;36.90;41.40;;;;;;5012104;28;20196;-72
2022/11/01 12:22:30;;;;;;;8.40;6.38;;;36.60;41.10;;;;;;5009692;28;20267;-71
2022/11/01 12:24:59;;;;;;;9.07;6.25;;;36.40;41.90;;;;;;5014262;28;20184;-72
2022/11/01 12:27:27;;;;;;;10.05;5.45;;;36.40;41.00;;;;;;5009515;28;20629;-72
2022/11/01 12:30:17;;;;;;;10.13;6.05;;;36.30;41.50;;;;;;5010412;28;20201;-72
2022/11/01 12:32:55;;;;;;;5.95;5.55;;;36.20;41.80;;;;;;4982499;28;20268;-72
2022/11/01 12:35:21;;;;;;;9.18;6.00;;;35.80;41.40;;;;;;4980747;28;20192;-72
2022/11/01 12:38:07;;;;;;;7.20;6.13;;;35.70;42.70;;;;;;4982009;28;20225;-72
2022/11/01 12:40:36;;;;;;;7.20;5.75;;;35.70;42.80;;;;;;4982603;28;20181;-72
2022/11/01 12:43:19;;;;;;;10.02;6.15;;;35.80;41.50;;;;;;4981128;28;20197;-72
2022/11/01 12:45:52;;;;;;;6.72;5.38;;;35.70;41.60;;;;;;4980272;28;20649;-71
2022/11/01 12:48:47;;;;;;;8.15;5.05;;;35.60;42.30;;;;;;4980411;28;20188;-72
2022/11/01 12:51:27;;;;;;;6.95;5.05;;;35.60;41.60;;;;;;4940933;28;21763;-71
2022/11/01 12:54:18;;;;;;;6.63;5.63;;;35.70;42.50;;;;;;4942742;29;20201;-71
2022/11/01 12:56:44;;;;;;;9.18;5.30;;;35.50;41.20;;;;;;4942889;29;20222;-71
2022/11/01 12:59:15;;;;;;;10.75;5.10;;;35.30;42.60;;;;;;4942802;29;20331;-71